createdAt,value
2024-03-16T00:01:33.625Z,17.80
2024-03-16T00:04:00.677Z,19.53
2024-03-16T00:06:27.630Z,19.20
2024-03-16T00:08:54.529Z,18.77
2024-03-16T00:11:21.601Z,18.03
2024-03-16T00:13:48.618Z,18.97
2024-03-16T00:16:15.579Z,18.07
2024-03-16T00:18:42.530Z,18.40
2024-03-16T00:21:09.704Z,22.30
2024-03-16T00:23:36.572Z,23.13
2024-03-16T00:26:03.530Z,19.93
2024-03-16T00:28:30.456Z,21.90
2024-03-16T00:30:57.624Z,19.10
2024-03-16T00:33:24.789Z,18.57
2024-03-16T00:35:52.140Z,17.80
2024-03-16T00:38:19.225Z,19.40
2024-03-16T00:40:46.278Z,18.13
2024-03-16T00:43:19.113Z,17.97
2024-03-16T00:45:46.520Z,17.77
2024-03-16T00:48:13.564Z,18.17
2024-03-16T00:50:41.141Z,17.57
2024-03-16T00:53:10.571Z,18.20
2024-03-16T00:55:38.871Z,18.60
2024-03-16T00:58:06.136Z,17.83
2024-03-16T01:00:33.296Z,17.60
2024-03-16T01:03:00.474Z,17.90
2024-03-16T01:05:29.502Z,17.23
2024-03-16T01:07:57.424Z,17.20
2024-03-16T01:10:24.666Z,17.60
2024-03-16T01:12:51.769Z,17.87
2024-03-16T01:15:18.762Z,17.17
2024-03-16T01:17:46.159Z,17.73
2024-03-16T01:20:14.622Z,18.07
2024-03-16T01:22:41.629Z,18.03
2024-03-16T01:25:08.598Z,18.03
2024-03-16T01:27:35.738Z,18.00
2024-03-16T01:30:03.613Z,17.67
2024-03-16T01:32:30.779Z,17.67
2024-03-16T01:34:57.756Z,18.87
2024-03-16T01:37:24.769Z,18.43
2024-03-16T01:39:51.978Z,18.40
2024-03-16T01:42:19.117Z,18.40
2024-03-16T01:45:08.296Z,17.97
2024-03-16T01:47:35.442Z,17.63
2024-03-16T01:50:02.491Z,18.53
2024-03-16T01:52:29.837Z,17.90
2024-03-16T01:54:56.931Z,18.10
2024-03-16T01:57:24.126Z,16.77
2024-03-16T01:59:51.171Z,17.87
2024-03-16T02:02:34.356Z,17.53
2024-03-16T02:05:01.586Z,17.83
2024-03-16T02:07:28.506Z,17.87
2024-03-16T02:09:55.479Z,17.50
2024-03-16T02:12:22.450Z,17.27
2024-03-16T02:14:49.467Z,17.77
2024-03-16T02:17:16.500Z,17.00
2024-03-16T02:19:43.507Z,16.73
2024-03-16T02:22:10.996Z,16.60
2024-03-16T02:24:38.053Z,17.17
2024-03-16T02:27:05.207Z,17.03
2024-03-16T02:29:34.053Z,17.07
2024-03-16T02:32:01.045Z,17.57
2024-03-16T02:34:28.004Z,17.53
2024-03-16T02:36:55.008Z,17.27
2024-03-16T02:39:22.334Z,18.03
2024-03-16T02:41:49.293Z,18.13
2024-03-16T02:44:17.305Z,17.80
2024-03-16T02:46:44.239Z,16.73
2024-03-16T02:49:11.146Z,17.00
2024-03-16T02:51:38.372Z,17.13
2024-03-16T02:54:05.725Z,17.77
2024-03-16T02:56:32.595Z,17.90
2024-03-16T02:59:00.094Z,17.13
2024-03-16T03:05:27.390Z,17.87
2024-03-16T03:07:54.555Z,18.10
2024-03-16T03:10:22.957Z,17.33
2024-03-16T03:12:50.869Z,17.10
2024-03-16T03:15:17.939Z,17.57
2024-03-16T03:17:45.003Z,16.70
2024-03-16T03:20:12.828Z,17.27
2024-03-16T03:22:39.694Z,17.87
2024-03-16T03:25:07.045Z,17.87
2024-03-16T03:27:35.067Z,18.17
2024-03-16T03:30:02.148Z,17.40
2024-03-16T03:32:29.507Z,18.27
2024-03-16T03:34:56.642Z,17.00
2024-03-16T03:37:23.536Z,17.53
2024-03-16T03:39:53.814Z,17.50
2024-03-16T03:42:26.107Z,17.20
2024-03-16T03:45:11.915Z,17.43
2024-03-16T03:48:01.425Z,17.13
2024-03-16T03:50:29.901Z,16.97
2024-03-16T03:52:56.931Z,17.43
2024-03-16T03:55:23.886Z,16.67
2024-03-16T03:57:52.962Z,16.57
2024-03-16T04:00:20.884Z,16.53
2024-03-16T04:02:47.793Z,16.27
2024-03-16T04:05:14.765Z,17.30
2024-03-16T04:07:42.940Z,17.17
2024-03-16T04:10:09.947Z,16.40
2024-03-16T04:12:36.892Z,17.20
2024-03-16T04:15:04.971Z,24.03
2024-03-16T04:17:31.898Z,16.93
2024-03-16T04:19:59.009Z,16.63
2024-03-16T04:22:25.925Z,17.77
2024-03-16T04:24:52.920Z,26.87
2024-03-16T04:27:20.005Z,18.67
2024-03-16T04:29:47.015Z,18.33
2024-03-16T04:32:13.991Z,18.77
2024-03-16T04:34:40.938Z,17.70
2024-03-16T04:37:07.888Z,18.27
2024-03-16T04:39:34.876Z,18.67
2024-03-16T04:42:01.806Z,19.70
2024-03-16T04:44:28.765Z,19.03
2024-03-16T04:46:55.849Z,24.07
2024-03-16T04:49:22.903Z,18.87
2024-03-16T04:51:49.905Z,18.73
2024-03-16T04:54:17.121Z,21.07
2024-03-16T04:56:44.012Z,28.73
2024-03-16T04:59:12.458Z,20.07
2024-03-16T05:01:39.520Z,20.23
2024-03-16T05:04:06.815Z,23.57
2024-03-16T05:06:35.123Z,22.63
2024-03-16T05:09:11.944Z,22.33
2024-03-16T05:11:39.018Z,25.27
2024-03-16T05:14:09.308Z,25.47
2024-03-16T05:16:37.295Z,23.73
2024-03-16T05:19:05.570Z,20.23
2024-03-16T05:21:33.022Z,21.07
2024-03-16T05:24:02.922Z,21.63
2024-03-16T05:26:32.716Z,20.27
2024-03-16T05:28:59.609Z,20.27
2024-03-16T05:31:28.429Z,21.13
2024-03-16T05:33:55.478Z,19.33
2024-03-16T05:36:22.365Z,19.20
2024-03-16T05:38:49.255Z,20.00
2024-03-16T05:41:16.715Z,20.53
2024-03-16T05:43:47.223Z,20.83
2024-03-16T05:46:14.274Z,22.67
2024-03-16T05:48:41.890Z,22.33
2024-03-16T05:51:10.181Z,20.83
2024-03-16T05:53:37.066Z,20.67
2024-03-16T05:56:04.126Z,21.13
2024-03-16T05:58:32.885Z,21.63
2024-03-16T06:01:00.329Z,22.23
2024-03-16T06:03:28.125Z,21.80
2024-03-16T06:05:55.260Z,21.73
2024-03-16T06:08:22.172Z,21.47
2024-03-16T06:10:49.290Z,21.57
2024-03-16T06:13:16.419Z,20.33
2024-03-16T06:15:43.605Z,22.03
2024-03-16T06:18:10.831Z,21.63
2024-03-16T06:20:38.035Z,22.10
2024-03-16T06:23:07.792Z,23.07
2024-03-16T06:25:47.662Z,22.27
2024-03-16T06:28:18.283Z,23.30
2024-03-16T06:30:57.757Z,24.10
2024-03-16T06:33:34.401Z,23.40
2024-03-16T06:36:01.347Z,19.67
2024-03-16T06:38:30.172Z,18.53
2024-03-16T06:40:57.438Z,20.07
2024-03-16T06:43:24.278Z,18.53
2024-03-16T06:45:51.740Z,21.23
2024-03-16T06:48:19.181Z,17.40
2024-03-16T06:50:47.954Z,17.17
2024-03-16T06:53:14.895Z,16.80
2024-03-16T06:55:47.925Z,21.93
2024-03-16T06:58:14.985Z,16.77
2024-03-16T07:00:42.049Z,16.73
2024-03-16T07:03:09.042Z,19.50
2024-03-16T07:05:35.976Z,16.83
2024-03-16T07:08:02.982Z,16.37
2024-03-16T07:10:30.482Z,23.03
2024-03-16T07:12:57.595Z,19.33
2024-03-16T07:15:24.441Z,20.70
2024-03-16T07:17:51.368Z,16.60
2024-03-16T07:20:18.345Z,16.80
2024-03-16T07:22:45.271Z,16.83
2024-03-16T07:25:12.366Z,16.90
2024-03-16T07:27:39.414Z,16.40
2024-03-16T07:30:06.761Z,17.00
2024-03-16T07:32:34.374Z,16.73
2024-03-16T07:35:01.354Z,16.53
2024-03-16T07:37:28.275Z,17.23
2024-03-16T07:39:55.174Z,16.33
2024-03-16T07:42:22.063Z,16.60
2024-03-16T07:44:48.961Z,16.53
2024-03-16T07:47:16.558Z,17.07
2024-03-16T07:49:43.536Z,16.57
2024-03-16T07:52:13.045Z,16.20
2024-03-16T07:54:40.590Z,16.97
2024-03-16T07:57:09.904Z,16.50
2024-03-16T07:59:36.820Z,16.50
2024-03-16T08:02:03.752Z,17.10
2024-03-16T08:04:34.282Z,16.90
2024-03-16T08:07:01.372Z,17.40
2024-03-16T08:09:28.298Z,17.77
2024-03-16T08:11:55.556Z,18.17
2024-03-16T08:14:22.459Z,17.53
2024-03-16T08:16:49.427Z,17.57
2024-03-16T08:19:17.995Z,17.13
2024-03-16T08:21:45.917Z,16.67
2024-03-16T08:24:12.871Z,17.20
2024-03-16T08:26:39.750Z,17.00
2024-03-16T08:29:06.749Z,17.30
2024-03-16T08:31:34.353Z,16.00
2024-03-16T08:34:01.338Z,15.90
2024-03-16T08:36:28.838Z,15.80
2024-03-16T08:38:55.824Z,16.07
2024-03-16T08:41:22.783Z,16.60
2024-03-16T08:43:50.299Z,16.23
2024-03-16T08:46:17.182Z,17.07
2024-03-16T08:48:44.234Z,16.73
2024-03-16T08:51:11.161Z,17.23
2024-03-16T08:53:38.096Z,17.00
2024-03-16T08:56:08.156Z,16.60
2024-03-16T08:58:35.173Z,17.47
2024-03-16T09:01:02.653Z,18.27
2024-03-16T09:03:30.566Z,18.00
2024-03-16T09:05:57.698Z,17.50
2024-03-16T09:08:24.557Z,18.40
2024-03-16T09:10:51.516Z,18.30
2024-03-16T09:13:18.657Z,18.30
2024-03-16T09:15:45.662Z,17.13
2024-03-16T09:18:13.230Z,17.47
2024-03-16T09:20:44.866Z,17.00
2024-03-16T09:23:14.750Z,16.60
2024-03-16T09:25:42.463Z,16.43
2024-03-16T09:28:12.845Z,17.03
2024-03-16T09:30:40.682Z,16.13
2024-03-16T09:33:07.799Z,16.05
2024-03-16T09:35:34.652Z,17.17
2024-03-16T09:38:01.546Z,16.80
2024-03-16T09:40:28.504Z,17.08
